createdAt,value
2023-03-16T00:00:19.322Z,8.73
2023-03-16T00:01:07.876Z,8.40
2023-03-16T00:01:49.522Z,8.45
2023-03-16T00:02:31.161Z,8.32
2023-03-16T00:03:19.324Z,8.95
2023-03-16T00:04:01.089Z,9.82
2023-03-16T00:04:42.731Z,9.10
2023-03-16T00:05:25.883Z,8.83
2023-03-16T00:06:07.759Z,8.68
2023-03-16T00:06:49.561Z,8.65
2023-03-16T00:07:31.226Z,8.98
2023-03-16T00:08:13.596Z,9.00
2023-03-16T00:08:59.026Z,9.13
2023-03-16T00:09:41.687Z,8.35
2023-03-16T00:10:27.318Z,8.35
2023-03-16T00:11:09.275Z,8.82
2023-03-16T00:11:50.874Z,9.07
2023-03-16T00:12:34.714Z,8.52
2023-03-16T00:13:18.264Z,8.68
2023-03-16T00:13:59.862Z,8.00
2023-03-16T00:14:46.004Z,7.93
2023-03-16T00:15:27.594Z,7.35
2023-03-16T00:16:09.252Z,7.72
2023-03-16T00:16:50.934Z,6.18
2023-03-16T00:17:34.651Z,7.10
2023-03-16T00:18:16.378Z,7.97
2023-03-16T00:18:59.202Z,7.47
2023-03-16T00:19:46.811Z,7.25
2023-03-16T00:20:28.900Z,7.65
2023-03-16T00:21:13.342Z,6.95
2023-03-16T00:21:55.031Z,7.35
2023-03-16T00:22:36.700Z,7.85
2023-03-16T00:23:20.135Z,7.20
2023-03-16T00:24:03.842Z,7.60
2023-03-16T00:24:45.592Z,7.43
2023-03-16T00:25:27.355Z,7.93
2023-03-16T00:26:09.973Z,7.57
2023-03-16T00:26:54.819Z,7.70
2023-03-16T00:27:36.590Z,7.93
2023-03-16T00:28:18.235Z,8.02
2023-03-16T00:29:00.097Z,7.57
2023-03-16T00:29:49.486Z,7.90
2023-03-16T00:30:32.658Z,7.88
2023-03-16T00:31:14.760Z,7.85
2023-03-16T00:31:56.553Z,7.70
2023-03-16T00:32:39.594Z,6.60
2023-03-16T00:33:21.202Z,7.70
2023-03-16T00:34:02.815Z,7.70
2023-03-16T00:34:45.761Z,7.80
2023-03-16T00:35:27.571Z,7.68
2023-03-16T00:36:11.279Z,7.95
2023-03-16T00:36:52.983Z,8.05
2023-03-16T00:37:35.037Z,8.10
2023-03-16T00:38:20.329Z,7.78
2023-03-16T00:39:02.322Z,8.50
2023-03-16T00:39:45.875Z,8.50
2023-03-16T00:40:27.987Z,9.02
2023-03-16T00:41:09.982Z,8.98
2023-03-16T00:41:51.637Z,8.82
2023-03-16T00:42:34.747Z,9.32
2023-03-16T00:43:18.754Z,9.07
2023-03-16T00:44:01.064Z,8.27
2023-03-16T00:44:42.983Z,8.88
2023-03-16T00:45:24.994Z,9.20
2023-03-16T00:46:08.877Z,8.50
2023-03-16T00:46:51.597Z,9.40
2023-03-16T00:47:34.250Z,9.68
2023-03-16T00:48:16.565Z,8.40
2023-03-16T00:48:58.258Z,8.65
2023-03-16T00:49:42.756Z,9.18
2023-03-16T00:50:24.428Z,8.33
2023-03-16T00:51:08.838Z,8.98
2023-03-16T00:51:50.842Z,9.00
2023-03-16T00:52:35.371Z,9.23
2023-03-16T00:53:17.133Z,8.63
2023-03-16T00:53:58.796Z,9.37
2023-03-16T00:54:45.763Z,8.80
2023-03-16T00:55:27.422Z,8.68
2023-03-16T00:56:10.334Z,8.93
2023-03-16T00:56:51.953Z,9.63
2023-03-16T00:57:34.262Z,9.00
2023-03-16T00:58:15.884Z,8.90
2023-03-16T00:58:57.873Z,8.98
2023-03-16T00:59:40.425Z,8.32
2023-03-16T01:00:22.434Z,8.95
2023-03-16T01:01:18.756Z,8.45
2023-03-16T01:02:00.516Z,9.00
2023-03-16T01:02:45.814Z,9.52
2023-03-16T01:03:27.485Z,10.02
2023-03-16T01:04:09.396Z,9.65
2023-03-16T01:04:52.562Z,9.00
2023-03-16T01:05:34.155Z,9.20
2023-03-16T01:06:17.472Z,9.18
2023-03-16T01:06:59.104Z,9.10
2023-03-16T01:07:41.539Z,8.75
2023-03-16T01:08:23.218Z,9.50
2023-03-16T01:09:05.720Z,8.05
2023-03-16T01:09:47.573Z,8.68
2023-03-16T01:10:29.781Z,8.48
2023-03-16T01:11:17.420Z,8.25
2023-03-16T01:11:59.183Z,8.82
2023-03-16T01:12:45.107Z,7.70
2023-03-16T01:13:26.719Z,7.95
2023-03-16T01:14:10.243Z,7.90
2023-03-16T01:14:52.305Z,8.48
2023-03-16T01:15:34.852Z,8.32
2023-03-16T01:16:23.180Z,7.95
2023-03-16T01:17:08.592Z,8.40
2023-03-16T01:17:51.777Z,9.20
2023-03-16T01:18:34.203Z,8.73
2023-03-16T01:19:15.959Z,8.47
2023-03-16T01:19:57.597Z,8.48
2023-03-16T01:20:39.887Z,9.00
2023-03-16T01:21:22.126Z,8.50
2023-03-16T01:22:06.697Z,8.98
2023-03-16T01:22:48.274Z,8.80
2023-03-16T01:23:31.291Z,8.73
2023-03-16T01:24:12.876Z,9.02
2023-03-16T01:24:55.213Z,8.97
2023-03-16T01:25:36.844Z,9.13
2023-03-16T01:26:18.820Z,8.02
2023-03-16T01:27:03.041Z,9.53
2023-03-16T01:27:44.701Z,8.60
2023-03-16T01:28:29.389Z,9.25
2023-03-16T01:29:12.447Z,9.55
2023-03-16T01:29:54.696Z,8.90
2023-03-16T01:30:36.714Z,9.52
2023-03-16T01:31:18.484Z,9.27
2023-03-16T01:32:01.344Z,9.17
2023-03-16T01:32:43.369Z,8.75
2023-03-16T01:33:28.263Z,8.77
2023-03-16T01:34:16.472Z,8.13
2023-03-16T01:34:58.425Z,9.90
2023-03-16T01:35:40.042Z,7.93
2023-03-16T01:36:22.101Z,8.50
2023-03-16T01:37:09.946Z,8.30
2023-03-16T01:38:07.475Z,8.43
2023-03-16T01:38:49.732Z,8.17
2023-03-16T01:39:31.481Z,8.20
2023-03-16T01:40:13.476Z,8.30
2023-03-16T01:40:55.868Z,8.05
2023-03-16T01:41:39.437Z,8.27
2023-03-16T01:42:21.166Z,8.18
2023-03-16T01:43:04.742Z,8.40
2023-03-16T01:43:51.882Z,8.65
2023-03-16T01:44:56.048Z,8.50
2023-03-16T01:46:06.574Z,8.33
2023-03-16T01:46:54.763Z,9.00
2023-03-16T01:47:38.403Z,8.55
2023-03-16T01:48:25.858Z,8.32
2023-03-16T01:49:12.503Z,8.17
2023-03-16T01:49:56.764Z,8.60
2023-03-16T01:50:42.272Z,8.60
2023-03-16T01:51:31.017Z,7.97
2023-03-16T01:52:18.074Z,8.30
2023-03-16T01:52:59.720Z,8.50
2023-03-16T01:53:45.816Z,8.23
2023-03-16T01:54:40.926Z,8.25
2023-03-16T01:55:22.803Z,8.80
2023-03-16T01:56:08.832Z,9.13
2023-03-16T01:56:59.946Z,9.50
2023-03-16T01:57:45.168Z,9.63
2023-03-16T01:58:28.862Z,9.70
2023-03-16T01:59:16.368Z,9.90
2023-03-16T02:00:19.874Z,9.07
2023-03-16T02:01:14.113Z,9.27
2023-03-16T02:01:56.780Z,9.33
2023-03-16T02:02:43.514Z,9.60
2023-03-16T02:03:30.035Z,8.98
2023-03-16T02:04:43.042Z,7.70
2023-03-16T02:05:56.343Z,8.52
2023-03-16T02:06:40.009Z,9.00
2023-03-16T02:07:24.637Z,9.73
2023-03-16T02:08:09.545Z,8.27
2023-03-16T02:08:55.234Z,8.87
2023-03-16T02:09:42.617Z,8.73
2023-03-16T02:10:27.617Z,9.05
2023-03-16T02:11:09.939Z,9.03
2023-03-16T02:11:59.550Z,9.30
2023-03-16T02:12:43.226Z,8.70
2023-03-16T02:13:26.385Z,9.20
2023-03-16T02:14:11.796Z,9.40
2023-03-16T02:14:53.532Z,9.37
2023-03-16T02:15:36.076Z,9.13
2023-03-16T02:16:19.516Z,9.80
2023-03-16T02:17:01.602Z,9.13
2023-03-16T02:17:45.276Z,9.77
2023-03-16T02:18:28.894Z,9.40
2023-03-16T02:19:27.056Z,9.63
2023-03-16T02:20:23.089Z,9.37
2023-03-16T02:21:39.782Z,10.45
2023-03-16T02:22:24.929Z,9.77
2023-03-16T02:23:10.259Z,9.30
2023-03-16T02:23:52.520Z,10.07
2023-03-16T02:24:37.119Z,10.73
2023-03-16T02:25:19.173Z,10.40
2023-03-16T02:26:08.596Z,10.87
2023-03-16T02:27:13.807Z,10.33
2023-03-16T02:28:13.391Z,10.93
2023-03-16T02:29:00.228Z,11.90
2023-03-16T02:30:02.754Z,12.07
2023-03-16T02:30:49.486Z,11.33
2023-03-16T02:31:31.988Z,12.53
2023-03-16T02:32:15.235Z,11.60
2023-03-16T02:32:57.441Z,11.87
2023-03-16T02:33:39.943Z,11.23
2023-03-16T02:34:26.361Z,10.97
2023-03-16T02:35:10.071Z,11.03
2023-03-16T02:35:51.958Z,11.67
2023-03-16T02:36:34.860Z,10.80
2023-03-16T02:37:16.643Z,11.27
2023-03-16T02:37:58.357Z,10.60
2023-03-16T02:38:44.733Z,11.30
2023-03-16T02:39:26.677Z,9.87
2023-03-16T02:40:25.610Z,11.20
2023-03-16T02:41:15.524Z,10.18
2023-03-16T02:41:57.560Z,10.77
2023-03-16T02:42:39.309Z,10.43
2023-03-16T02:43:24.842Z,10.97
2023-03-16T02:44:26.428Z,10.40
2023-03-16T02:45:09.897Z,10.05
2023-03-16T02:45:55.216Z,10.80
2023-03-16T02:46:39.187Z,9.38
2023-03-16T02:47:28.569Z,10.23
2023-03-16T02:48:16.562Z,9.23
2023-03-16T02:49:05.702Z,10.10
2023-03-16T02:49:47.393Z,10.27
2023-03-16T02:50:30.410Z,10.15
2023-03-16T02:51:12.780Z,9.87
2023-03-16T02:51:54.447Z,9.73
2023-03-16T02:52:38.208Z,9.82
2023-03-16T02:53:21.010Z,10.40
2023-03-16T02:54:03.230Z,10.90
2023-03-16T02:54:47.427Z,10.20
2023-03-16T02:55:29.224Z,10.63
2023-03-16T02:56:10.912Z,10.90
2023-03-16T02:56:53.099Z,11.70
2023-03-16T02:57:35.642Z,11.17
2023-03-16T02:58:22.626Z,9.90
2023-03-16T02:59:04.893Z,11.47
2023-03-16T02:59:46.796Z,11.03
2023-03-16T03:00:30.036Z,10.33
2023-03-16T03:01:11.716Z,10.20
2023-03-16T03:01:54.284Z,10.47
2023-03-16T03:02:35.892Z,10.90
2023-03-16T03:03:17.642Z,10.87
2023-03-16T03:03:59.267Z,11.10
2023-03-16T03:04:41.776Z,11.40
2023-03-16T03:05:23.990Z,10.53
2023-03-16T03:06:06.366Z,11.50
2023-03-16T03:06:51.793Z,9.82
2023-03-16T03:07:33.517Z,10.40
2023-03-16T03:08:22.363Z,10.50
2023-03-16T03:09:05.220Z,9.85
2023-03-16T03:09:47.226Z,10.93
2023-03-16T03:10:29.333Z,9.48
2023-03-16T03:11:11.851Z,10.70
2023-03-16T03:11:53.435Z,10.80
2023-03-16T03:12:35.877Z,10.65
2023-03-16T03:13:20.819Z,9.98
2023-03-16T03:14:03.890Z,9.80
2023-03-16T03:14:45.550Z,10.53
2023-03-16T03:15:31.146Z,10.27
2023-03-16T03:16:18.362Z,9.07
2023-03-16T03:17:00.057Z,11.57
2023-03-16T03:17:42.994Z,10.90
2023-03-16T03:18:25.459Z,10.60
2023-03-16T03:19:07.796Z,11.60
2023-03-16T03:19:53.181Z,10.70
2023-03-16T03:20:35.970Z,11.17
2023-03-16T03:21:17.625Z,10.88
2023-03-16T03:22:00.237Z,10.75
2023-03-16T03:22:45.017Z,10.93
2023-03-16T03:23:26.859Z,10.90
2023-03-16T03:24:09.467Z,11.02
2023-03-16T03:24:53.187Z,10.90
2023-03-16T03:25:35.105Z,11.63
2023-03-16T03:26:16.998Z,10.97
2023-03-16T03:27:05.962Z,11.20
2023-03-16T03:27:50.878Z,10.10
2023-03-16T03:28:35.345Z,11.07
2023-03-16T03:29:16.952Z,11.30
2023-03-16T03:29:58.677Z,10.73
2023-03-16T03:30:41.747Z,10.75
2023-03-16T03:31:23.562Z,10.33
2023-03-16T03:32:07.399Z,10.00
2023-03-16T03:32:49.145Z,9.80
2023-03-16T03:33:33.692Z,9.65
2023-03-16T03:34:15.556Z,10.38
2023-03-16T03:34:57.250Z,9.88
2023-03-16T03:35:42.089Z,9.95
2023-03-16T03:36:23.973Z,10.48
2023-03-16T03:37:05.711Z,9.88
2023-03-16T03:37:47.964Z,9.98
2023-03-16T03:38:30.856Z,10.20
2023-03-16T03:39:12.566Z,9.90
2023-03-16T03:39:54.207Z,9.45
2023-03-16T03:40:36.170Z,9.52
2023-03-16T03:41:18.713Z,9.27
2023-03-16T03:42:02.946Z,9.00
2023-03-16T03:42:44.580Z,10.30
2023-03-16T03:43:26.632Z,9.80
2023-03-16T03:44:08.507Z,10.68
2023-03-16T03:44:52.582Z,10.10
2023-03-16T03:45:34.451Z,9.30
2023-03-16T03:46:16.423Z,9.23
2023-03-16T03:46:58.217Z,9.35
2023-03-16T03:47:42.813Z,9.73
2023-03-16T03:48:28.778Z,9.57
2023-03-16T03:49:11.887Z,10.77
2023-03-16T03:49:53.720Z,9.10
2023-03-16T03:50:35.495Z,9.57
2023-03-16T03:51:41.243Z,8.65
2023-03-16T03:52:28.693Z,9.23
2023-03-16T03:53:10.596Z,9.73
2023-03-16T03:54:09.104Z,9.40
2023-03-16T03:55:17.054Z,8.93
2023-03-16T03:55:58.965Z,9.47
2023-03-16T03:56:40.593Z,10.10
2023-03-16T03:57:26.569Z,9.93
2023-03-16T03:58:08.606Z,9.93
2023-03-16T03:58:50.412Z,10.57
2023-03-16T03:59:45.031Z,10.43
2023-03-16T04:00:29.752Z,13.20
2023-03-16T04:01:11.581Z,12.50
2023-03-16T04:01:53.804Z,12.00
2023-03-16T04:02:38.500Z,12.60
2023-03-16T04:03:21.867Z,11.37
2023-03-16T04:04:03.642Z,11.63
2023-03-16T04:04:45.354Z,11.40
2023-03-16T04:05:28.298Z,12.20
2023-03-16T04:06:09.962Z,11.57
2023-03-16T04:06:51.658Z,11.07
2023-03-16T04:07:33.420Z,11.07
2023-03-16T04:08:18.801Z,11.17
2023-03-16T04:09:01.096Z,11.50
2023-03-16T04:09:44.360Z,11.70
2023-03-16T04:10:35.415Z,11.02
2023-03-16T04:11:17.033Z,10.70
2023-03-16T04:11:59.007Z,11.10
2023-03-16T04:12:40.888Z,11.27
2023-03-16T04:13:25.320Z,10.77
2023-03-16T04:14:07.654Z,11.27
2023-03-16T04:14:50.145Z,10.87
2023-03-16T04:15:32.945Z,11.77
2023-03-16T04:16:28.387Z,11.20
2023-03-16T04:17:12.363Z,11.48
2023-03-16T04:17:54.200Z,11.00
2023-03-16T04:18:38.588Z,10.70
2023-03-16T04:19:22.742Z,11.30
2023-03-16T04:20:11.725Z,10.30
2023-03-16T04:20:53.505Z,10.65
2023-03-16T04:21:38.093Z,11.10
2023-03-16T04:22:19.979Z,10.70
2023-03-16T04:23:02.477Z,10.00
2023-03-16T04:23:45.298Z,10.27
2023-03-16T04:24:26.985Z,11.43
2023-03-16T04:25:11.536Z,10.70
2023-03-16T04:25:54.839Z,10.40
2023-03-16T04:26:37.326Z,10.60
2023-03-16T04:27:19.770Z,10.07
2023-03-16T04:28:02.098Z,9.80
2023-03-16T04:28:46.326Z,9.65
2023-03-16T04:29:31.972Z,11.07
2023-03-16T04:30:14.673Z,10.83
2023-03-16T04:31:02.933Z,11.05
2023-03-16T04:31:50.882Z,11.65
2023-03-16T04:32:34.189Z,13.45
2023-03-16T04:33:16.425Z,12.30
2023-03-16T04:33:59.114Z,14.20
2023-03-16T04:34:43.675Z,14.95
2023-03-16T04:35:27.745Z,11.90
2023-03-16T04:36:12.078Z,10.60
2023-03-16T04:36:54.841Z,12.77
2023-03-16T04:37:36.866Z,11.80
2023-03-16T04:38:19.936Z,11.73
2023-03-16T04:39:10.742Z,11.80
2023-03-16T04:39:52.446Z,11.93
2023-03-16T04:40:34.116Z,11.75
2023-03-16T04:41:26.465Z,11.40
2023-03-16T04:42:26.601Z,11.57
2023-03-16T04:43:08.281Z,11.27
2023-03-16T04:43:50.608Z,11.27
2023-03-16T04:44:43.939Z,10.48
2023-03-16T04:45:26.260Z,11.20
2023-03-16T04:46:10.738Z,11.18
2023-03-16T04:46:52.703Z,11.15
2023-03-16T04:47:37.688Z,10.87
2023-03-16T04:48:19.303Z,11.10
2023-03-16T04:49:00.918Z,12.40
2023-03-16T04:49:43.905Z,11.37
2023-03-16T04:50:25.665Z,11.18
2023-03-16T04:51:09.640Z,10.70
2023-03-16T04:51:55.434Z,10.13
2023-03-16T04:52:37.332Z,10.32
2023-03-16T04:53:18.935Z,10.45
2023-03-16T04:54:05.557Z,11.43
2023-03-16T04:54:53.722Z,11.37
2023-03-16T04:55:35.489Z,10.68
2023-03-16T04:56:20.491Z,11.05
2023-03-16T04:57:08.437Z,11.30
2023-03-16T04:58:01.496Z,11.80
2023-03-16T04:58:49.298Z,10.88
2023-03-16T04:59:31.841Z,11.57
2023-03-16T05:00:22.181Z,11.23
2023-03-16T05:01:29.530Z,10.18
2023-03-16T05:02:14.272Z,9.50
2023-03-16T05:02:56.064Z,10.13
2023-03-16T05:03:37.804Z,10.57
2023-03-16T05:04:20.009Z,12.27
2023-03-16T05:05:04.221Z,11.65
2023-03-16T05:05:47.414Z,11.77
2023-03-16T05:06:31.038Z,11.30
2023-03-16T05:07:14.576Z,10.47
2023-03-16T05:08:01.960Z,10.40
2023-03-16T05:08:45.963Z,11.43
2023-03-16T05:09:27.567Z,11.48
2023-03-16T05:10:11.265Z,11.15
2023-03-16T05:10:58.089Z,11.50
2023-03-16T05:11:40.189Z,11.68
2023-03-16T05:12:24.632Z,11.50
2023-03-16T05:13:10.615Z,11.70
2023-03-16T05:13:52.578Z,10.80
2023-03-16T05:14:36.002Z,11.50
2023-03-16T05:15:34.318Z,12.00
2023-03-16T05:16:30.944Z,11.98
2023-03-16T05:17:14.804Z,10.83
2023-03-16T05:17:57.884Z,10.83
2023-03-16T05:18:40.264Z,11.50
2023-03-16T05:19:21.981Z,10.93
2023-03-16T05:20:08.193Z,11.60
2023-03-16T05:20:53.697Z,10.57
2023-03-16T05:21:37.691Z,11.20
2023-03-16T05:22:22.643Z,10.53
2023-03-16T05:23:24.288Z,10.87
2023-03-16T05:24:13.946Z,11.43
2023-03-16T05:24:55.770Z,11.40
2023-03-16T05:25:38.259Z,11.70
2023-03-16T05:26:21.246Z,11.48
2023-03-16T05:27:03.385Z,11.37
2023-03-16T05:27:47.673Z,12.05
2023-03-16T05:28:34.982Z,10.93
2023-03-16T05:29:20.038Z,12.13
2023-03-16T05:30:01.695Z,11.13
2023-03-16T05:30:45.431Z,10.75
2023-03-16T05:31:34.813Z,11.20
2023-03-16T05:32:18.981Z,13.07
2023-03-16T05:33:01.130Z,12.32
2023-03-16T05:33:44.507Z,12.20
2023-03-16T05:34:31.609Z,14.35
2023-03-16T05:35:13.713Z,13.35
2023-03-16T05:35:57.980Z,13.38
2023-03-16T05:36:40.129Z,12.77
2023-03-16T05:37:26.807Z,12.82
2023-03-16T05:38:09.887Z,12.05
2023-03-16T05:38:54.595Z,11.73
2023-03-16T05:39:50.840Z,12.05
2023-03-16T05:40:33.031Z,11.80
2023-03-16T05:41:24.252Z,11.77
2023-03-16T05:42:19.794Z,11.95
2023-03-16T05:43:08.170Z,12.07
2023-03-16T05:43:55.968Z,11.43
2023-03-16T05:44:41.356Z,11.23
2023-03-16T05:45:51.958Z,11.20
2023-03-16T05:46:34.715Z,12.55
2023-03-16T05:47:19.846Z,10.75
2023-03-16T05:48:06.457Z,12.75
2023-03-16T05:48:51.709Z,12.52
2023-03-16T05:49:35.168Z,12.60
2023-03-16T05:50:20.634Z,11.57
2023-03-16T05:51:05.879Z,11.90
2023-03-16T05:51:49.031Z,12.93
2023-03-16T05:52:31.251Z,13.18
2023-03-16T05:53:15.607Z,12.93
2023-03-16T05:53:57.573Z,13.25
2023-03-16T05:54:48.073Z,12.50
2023-03-16T05:55:30.000Z,13.55
2023-03-16T05:56:15.427Z,12.63
2023-03-16T05:56:59.780Z,13.18
2023-03-16T05:57:42.102Z,13.73
2023-03-16T05:58:24.015Z,12.27
2023-03-16T05:59:06.410Z,11.90
2023-03-16T05:59:48.777Z,12.93
2023-03-16T06:00:31.833Z,12.48
2023-03-16T06:01:26.517Z,12.02
2023-03-16T06:02:10.796Z,12.23
2023-03-16T06:02:53.161Z,12.23
2023-03-16T06:03:36.662Z,10.75
2023-03-16T06:04:19.736Z,11.55
2023-03-16T06:05:01.943Z,11.10
2023-03-16T06:05:43.720Z,12.38
2023-03-16T06:06:26.016Z,11.20
2023-03-16T06:07:13.831Z,11.10
2023-03-16T06:07:55.720Z,10.80
2023-03-16T06:08:38.706Z,11.88
2023-03-16T06:09:25.806Z,10.45
2023-03-16T06:10:08.858Z,11.60
2023-03-16T06:10:50.764Z,11.15
2023-03-16T06:11:33.405Z,10.88
2023-03-16T06:12:15.297Z,11.75
2023-03-16T06:12:59.507Z,11.43
2023-03-16T06:13:41.534Z,10.80
2023-03-16T06:14:24.823Z,11.48
2023-03-16T06:15:10.214Z,11.13
2023-03-16T06:15:51.965Z,12.23
2023-03-16T06:16:33.777Z,11.43
2023-03-16T06:17:15.926Z,10.45
2023-03-16T06:17:57.814Z,10.27
2023-03-16T06:18:40.243Z,10.80
2023-03-16T06:19:22.626Z,10.63
2023-03-16T06:20:13.001Z,10.40
2023-03-16T06:20:56.399Z,9.80
2023-03-16T06:21:38.918Z,9.93
2023-03-16T06:22:25.124Z,10.32
2023-03-16T06:23:06.852Z,11.88
2023-03-16T06:23:48.659Z,10.40
2023-03-16T06:24:30.382Z,9.73
2023-03-16T06:25:13.264Z,10.82
2023-03-16T06:25:56.468Z,10.88
2023-03-16T06:26:41.123Z,10.90
2023-03-16T06:27:26.617Z,10.25
2023-03-16T06:28:23.261Z,9.15
2023-03-16T06:29:05.893Z,9.90
2023-03-16T06:29:49.793Z,9.57
2023-03-16T06:30:31.669Z,9.63
2023-03-16T06:31:13.926Z,10.23
2023-03-16T06:31:57.356Z,10.18
2023-03-16T06:32:42.102Z,10.40
2023-03-16T06:33:24.840Z,10.73
2023-03-16T06:34:06.527Z,9.85
2023-03-16T06:34:48.640Z,11.98
2023-03-16T06:35:30.408Z,10.80
2023-03-16T06:36:26.205Z,11.32
2023-03-16T06:37:11.270Z,10.30
2023-03-16T06:37:52.871Z,10.35
2023-03-16T06:38:57.681Z,9.93
2023-03-16T06:39:52.320Z,9.50
2023-03-16T06:40:34.005Z,9.57
2023-03-16T06:41:15.627Z,10.77
2023-03-16T06:41:59.350Z,10.15
2023-03-16T06:42:40.984Z,9.80
2023-03-16T06:43:25.767Z,9.77
2023-03-16T06:44:07.633Z,10.40
2023-03-16T06:44:53.292Z,10.30
2023-03-16T06:45:35.002Z,10.57
2023-03-16T06:46:17.603Z,10.27
2023-03-16T06:46:59.436Z,10.73
2023-03-16T06:47:41.250Z,10.38
2023-03-16T06:48:23.769Z,12.82
2023-03-16T06:49:05.509Z,11.63
2023-03-16T06:49:47.861Z,11.27
2023-03-16T06:50:34.426Z,11.48
2023-03-16T06:51:16.900Z,10.70
2023-03-16T06:52:00.785Z,10.77
2023-03-16T06:52:42.593Z,13.70
2023-03-16T06:53:24.403Z,16.08
2023-03-16T06:54:07.689Z,85.13
2023-03-16T06:54:52.921Z,33.55
2023-03-16T06:55:35.173Z,17.58
2023-03-16T06:56:16.926Z,14.10
2023-03-16T06:57:00.317Z,12.80
2023-03-16T06:57:42.214Z,15.88
2023-03-16T06:58:23.863Z,29.38
2023-03-16T06:59:05.753Z,32.47
2023-03-16T06:59:47.510Z,25.10
2023-03-16T07:00:30.811Z,26.08
2023-03-16T07:01:12.688Z,28.20
2023-03-16T07:01:54.535Z,40.15
2023-03-16T07:02:36.255Z,41.38
2023-03-16T07:03:19.328Z,37.72
2023-03-16T07:04:06.704Z,31.70
2023-03-16T07:04:52.287Z,22.63
2023-03-16T07:05:34.004Z,18.88
2023-03-16T07:06:16.464Z,17.77
2023-03-16T07:06:58.432Z,19.55
2023-03-16T07:07:42.868Z,19.77
2023-03-16T07:08:24.592Z,19.50
2023-03-16T07:09:06.353Z,19.08
2023-03-16T07:09:49.190Z,17.10
2023-03-16T07:10:31.422Z,16.23
2023-03-16T07:11:14.875Z,15.00
2023-03-16T07:11:56.490Z,15.65
2023-03-16T07:12:38.320Z,14.98
2023-03-16T07:13:20.603Z,13.15
2023-03-16T07:14:02.820Z,14.05
2023-03-16T07:14:50.081Z,14.00
2023-03-16T07:15:35.845Z,14.07
2023-03-16T07:16:17.987Z,13.48
2023-03-16T07:16:59.741Z,13.55
2023-03-16T07:17:42.535Z,14.23
2023-03-16T07:18:26.056Z,13.23
2023-03-16T07:19:07.955Z,13.75
2023-03-16T07:19:49.795Z,13.18
2023-03-16T07:20:32.998Z,12.80
2023-03-16T07:21:16.957Z,12.35
2023-03-16T07:21:59.597Z,12.02
2023-03-16T07:22:42.671Z,11.70
2023-03-16T07:23:27.266Z,11.63
2023-03-16T07:24:15.347Z,10.73
2023-03-16T07:24:57.478Z,10.07
2023-03-16T07:25:40.768Z,11.05
2023-03-16T07:26:22.972Z,10.32
2023-03-16T07:27:11.425Z,10.23
2023-03-16T07:27:54.152Z,9.82
2023-03-16T07:28:41.834Z,10.02
2023-03-16T07:29:23.636Z,10.65
2023-03-16T07:30:05.917Z,10.27
2023-03-16T07:31:02.921Z,9.80
2023-03-16T07:31:50.672Z,9.27
2023-03-16T07:32:36.768Z,9.07
2023-03-16T07:33:19.285Z,9.25
2023-03-16T07:34:02.349Z,10.20
2023-03-16T07:34:51.889Z,9.75
2023-03-16T07:35:33.556Z,9.35
2023-03-16T07:36:15.728Z,9.43
2023-03-16T07:37:03.653Z,9.10
2023-03-16T07:37:47.412Z,9.52
2023-03-16T07:38:29.071Z,9.48
2023-03-16T07:39:14.253Z,9.85
2023-03-16T07:39:56.936Z,9.15
2023-03-16T07:40:41.920Z,10.20
2023-03-16T07:41:32.579Z,9.77
2023-03-16T07:42:28.499Z,9.20
2023-03-16T07:43:19.279Z,9.00
2023-03-16T07:44:04.511Z,9.15
2023-03-16T07:44:46.150Z,10.10
2023-03-16T07:45:28.038Z,9.82
2023-03-16T07:46:13.700Z,10.25
2023-03-16T07:46:55.536Z,9.52
2023-03-16T07:47:40.222Z,9.63
2023-03-16T07:48:29.460Z,9.80
2023-03-16T07:49:16.893Z,9.73
2023-03-16T07:50:00.205Z,10.45
2023-03-16T07:50:43.262Z,11.07
2023-03-16T07:51:25.208Z,9.88
2023-03-16T07:52:07.659Z,9.80
2023-03-16T07:52:54.357Z,9.13
2023-03-16T07:53:36.158Z,8.55
2023-03-16T07:54:36.454Z,8.57
2023-03-16T07:55:20.739Z,8.57
2023-03-16T07:56:05.850Z,9.90
2023-03-16T07:56:50.173Z,9.63
2023-03-16T07:57:49.909Z,9.73
2023-03-16T07:58:35.658Z,8.82
2023-03-16T07:59:18.786Z,8.65
2023-03-16T08:00:07.564Z,8.10
2023-03-16T08:00:58.814Z,8.65
2023-03-16T08:01:40.501Z,8.95
2023-03-16T08:02:22.391Z,8.75
2023-03-16T08:03:05.187Z,8.35
2023-03-16T08:03:46.980Z,8.75
2023-03-16T08:04:28.681Z,8.77
2023-03-16T08:05:10.923Z,8.38
2023-03-16T08:05:54.995Z,8.85
2023-03-16T08:06:36.715Z,8.93
2023-03-16T08:07:18.366Z,7.95
2023-03-16T08:08:11.506Z,7.35
2023-03-16T08:08:54.098Z,7.70
2023-03-16T08:09:42.912Z,7.68
2023-03-16T08:10:28.471Z,7.75
2023-03-16T08:11:23.706Z,7.35
2023-03-16T08:12:11.891Z,6.65
2023-03-16T08:12:53.675Z,7.57
2023-03-16T08:13:35.443Z,8.05
2023-03-16T08:14:17.130Z,8.98
2023-03-16T08:15:27.760Z,7.88
2023-03-16T08:16:16.716Z,7.93
2023-03-16T08:17:05.944Z,7.80
2023-03-16T08:17:47.852Z,7.78
2023-03-16T08:18:36.714Z,7.38
2023-03-16T08:19:20.220Z,7.28
2023-03-16T08:20:10.222Z,7.57
2023-03-16T08:20:52.284Z,7.30
2023-03-16T08:21:39.860Z,7.28
2023-03-16T08:22:27.142Z,7.30
2023-03-16T08:23:09.320Z,7.72
2023-03-16T08:23:55.152Z,7.85
2023-03-16T08:24:38.409Z,7.90
2023-03-16T08:25:23.073Z,7.38
2023-03-16T08:26:20.318Z,8.05
2023-03-16T08:27:03.679Z,8.48
2023-03-16T08:27:46.717Z,7.57
2023-03-16T08:28:29.681Z,7.75
2023-03-16T08:29:12.966Z,7.85
2023-03-16T08:29:55.050Z,7.30
2023-03-16T08:30:51.037Z,7.47
2023-03-16T08:31:43.971Z,6.97
2023-03-16T08:32:29.525Z,8.05
2023-03-16T08:33:11.309Z,12.40
2023-03-16T08:33:53.129Z,10.18
2023-03-16T08:34:39.976Z,8.55
2023-03-16T08:35:22.833Z,8.15
2023-03-16T08:36:09.930Z,7.75
2023-03-16T08:36:51.829Z,7.35
2023-03-16T08:37:33.654Z,9.00
2023-03-16T08:38:16.096Z,11.43
2023-03-16T08:39:06.624Z,10.23
2023-03-16T08:39:54.242Z,9.82
2023-03-16T08:40:36.870Z,10.88
2023-03-16T08:41:18.638Z,13.32
2023-03-16T08:42:02.715Z,8.40
2023-03-16T08:42:51.398Z,7.10
2023-03-16T08:43:37.096Z,7.28
2023-03-16T08:44:20.128Z,6.25
2023-03-16T08:45:11.634Z,7.25
2023-03-16T08:45:56.041Z,7.00
2023-03-16T08:46:42.394Z,6.60
2023-03-16T08:47:24.612Z,7.75
2023-03-16T08:48:07.481Z,7.35
2023-03-16T08:48:50.148Z,6.70
2023-03-16T08:49:31.882Z,6.47
2023-03-16T08:50:19.613Z,6.53
2023-03-16T08:51:03.023Z,6.80
2023-03-16T08:51:45.050Z,7.05
2023-03-16T08:52:26.794Z,11.43
2023-03-16T08:53:08.391Z,8.85
2023-03-16T08:53:50.734Z,7.65
2023-03-16T08:54:32.555Z,6.70
2023-03-16T08:55:15.575Z,6.50
2023-03-16T08:56:12.315Z,8.68
2023-03-16T08:56:54.046Z,7.57
2023-03-16T08:57:35.756Z,7.15
2023-03-16T08:58:17.366Z,6.53
2023-03-16T08:58:59.773Z,7.65
2023-03-16T08:59:41.695Z,6.60
2023-03-16T09:00:23.717Z,6.30
2023-03-16T09:01:06.038Z,5.95
2023-03-16T09:01:47.858Z,6.97
2023-03-16T09:02:29.621Z,7.10
2023-03-16T09:03:11.306Z,6.57
2023-03-16T09:03:53.103Z,6.25
2023-03-16T09:04:34.944Z,8.52
2023-03-16T09:05:18.200Z,7.13
2023-03-16T09:06:05.686Z,6.18
2023-03-16T09:06:55.815Z,6.57
2023-03-16T09:07:44.174Z,5.72
2023-03-16T09:08:25.791Z,5.38
2023-03-16T09:09:09.538Z,6.18
2023-03-16T09:09:51.470Z,6.13
2023-03-16T09:10:33.682Z,5.97
2023-03-16T09:11:18.750Z,6.07
2023-03-16T09:12:00.505Z,6.75
2023-03-16T09:12:43.528Z,5.65
2023-03-16T09:13:25.914Z,6.60
2023-03-16T09:14:08.711Z,5.88
2023-03-16T09:14:50.776Z,5.47
2023-03-16T09:15:32.406Z,5.78
2023-03-16T09:16:15.727Z,5.15
2023-03-16T09:16:57.393Z,7.32
2023-03-16T09:17:41.546Z,7.88
2023-03-16T09:18:26.067Z,6.78
2023-03-16T09:19:07.818Z,5.38
2023-03-16T09:19:52.402Z,6.13
2023-03-16T09:20:35.770Z,6.30
2023-03-16T09:21:18.431Z,6.78
2023-03-16T09:22:00.337Z,6.40
2023-03-16T09:22:42.318Z,6.70
2023-03-16T09:23:24.439Z,6.03
2023-03-16T09:24:07.749Z,5.97
2023-03-16T09:24:49.697Z,6.60
2023-03-16T09:25:32.442Z,6.35
2023-03-16T09:26:15.191Z,6.80
2023-03-16T09:26:57.498Z,6.57
2023-03-16T09:27:39.248Z,6.00
2023-03-16T09:28:22.240Z,6.38
2023-03-16T09:29:04.068Z,5.70
2023-03-16T09:29:46.600Z,6.10
2023-03-16T09:30:28.440Z,6.07
2023-03-16T09:31:16.844Z,5.95
2023-03-16T09:31:58.690Z,6.38
2023-03-16T09:32:40.375Z,6.53
2023-03-16T09:33:24.415Z,6.38
2023-03-16T09:34:06.087Z,6.00
2023-03-16T09:34:47.909Z,6.05
2023-03-16T09:35:30.521Z,7.65
2023-03-16T09:36:13.626Z,6.72
2023-03-16T09:36:55.412Z,6.90
2023-03-16T09:37:45.080Z,6.57
2023-03-16T09:38:33.025Z,7.20
2023-03-16T09:39:15.339Z,6.20
2023-03-16T09:40:03.247Z,7.55
2023-03-16T09:40:55.493Z,7.20
2023-03-16T09:41:49.059Z,6.57
2023-03-16T09:42:59.422Z,6.60
2023-03-16T09:43:47.120Z,6.40
2023-03-16T09:44:43.118Z,6.47
2023-03-16T09:45:46.463Z,6.72